Time;durP1;ratioP1;P1;durP2;ratioP2;P2;SDS_P1;SDS_P2;PMS_P1;PMS_P2;Temp;Humidity;BMP_temperature;BMP_pressure;BME280_temperature;BME280_humidity;BME280_pressure;Samples;Min_cycle;Max_cycle;Signal;HPM_P1;HPM_P2
2023/09/14 00:00:46;;;;;;;3.63;3.33;;;;;;;19.22;100.00;99613.97;5091263;28;20051;-89
2023/09/14 00:03:12;;;;;;;3.60;3.15;;;;;;;19.28;100.00;99626.63;5090805;28;20016;-89
2023/09/14 00:05:41;;;;;;;3.70;3.40;;;;;;;19.39;100.00;99641.59;5069402;28;20487;-89
2023/09/14 00:08:06;;;;;;;3.47;3.05;;;;;;;19.36;100.00;99640.03;5052486;28;20028;-88
2023/09/14 00:10:32;;;;;;;3.70;3.40;;;;;;;19.29;100.00;99630.13;5069409;28;20047;-88
2023/09/14 00:12:58;;;;;;;3.47;3.17;;;;;;;19.26;100.00;99625.09;5069296;28;20031;-89
2023/09/14 00:15:23;;;;;;;3.80;3.50;;;;;;;19.20;100.00;99624.63;5052374;28;20059;-88
2023/09/14 00:17:49;;;;;;;3.97;3.20;;;;;;;19.26;100.00;99644.44;5052333;28;20029;-88
2023/09/14 00:20:18;;;;;;;3.50;3.20;;;;;;;19.18;100.00;99645.06;5052639;28;20115;-89
2023/09/14 00:22:44;;;;;;;3.92;3.60;;;;;;;19.16;100.00;99648.78;5052513;28;20170;-88
2023/09/14 00:25:09;;;;;;;4.15;3.55;;;;;;;19.10;100.00;99649.28;5052302;28;20550;-88
2023/09/14 00:27:35;;;;;;;4.07;3.75;;;;;;;19.08;100.00;99648.56;5052521;28;20025;-88
2023/09/14 00:30:00;;;;;;;3.42;3.13;;;;;;;18.95;100.00;99640.81;5052326;28;20115;-88
2023/09/14 00:32:25;;;;;;;4.35;3.85;;;;;;;19.04;100.00;99657.69;5052536;28;20487;-87
2023/09/14 00:34:50;;;;;;;3.90;3.58;;;;;;;18.91;100.00;99645.50;5068887;28;20131;-88
2023/09/14 00:37:16;;;;;;;4.18;3.78;;;;;;;18.89;100.00;99647.44;5052391;28;20033;-88
2023/09/14 00:39:42;;;;;;;4.22;3.83;;;;;;;18.78;100.00;99628.16;5069172;28;20127;-88
2023/09/14 00:42:07;;;;;;;3.78;3.47;;;;;;;18.80;100.00;99628.88;5054832;28;20028;-88
2023/09/14 00:44:32;;;;;;;4.28;3.97;;;;;;;18.91;100.00;99645.50;5090474;28;20012;-88
2023/09/14 00:46:58;;;;;;;4.57;3.83;;;;;;;18.82;100.00;99629.56;5090200;28;20022;-88
2023/09/14 00:49:23;;;;;;;4.10;3.70;;;;;;;18.85;100.00;99638.09;5090437;28;20020;-88
2023/09/14 00:51:49;;;;;;;4.53;4.13;;;;;;;18.81;100.00;99635.81;5090401;28;20118;-88
2023/09/14 00:54:14;;;;;;;4.28;3.88;;;;;;;18.82;100.00;99646.25;5090333;28;20028;-89
2023/09/14 00:56:40;;;;;;;5.13;4.63;;;;;;;18.85;100.00;99653.09;5090731;28;20020;-89
2023/09/14 00:59:07;;;;;;;5.00;4.45;;;;;;;18.78;100.00;99652.72;5094100;28;20467;-89
2023/09/14 01:01:32;;;;;;;5.28;4.18;;;;;;;18.80;100.00;99656.09;5094463;28;20028;-88
2023/09/14 01:03:58;;;;;;;4.80;4.30;;;;;;;18.69;100.00;99638.47;5094092;28;20035;-88
2023/09/14 01:06:24;;;;;;;5.38;4.88;;;;;;;18.73;100.00;99648.78;5094165;28;20453;-88
2023/09/14 01:08:50;;;;;;;4.40;4.05;;;;;;;18.74;100.00;99661.03;5094131;28;20073;-89
2023/09/14 01:11:15;;;;;;;5.18;4.28;;;;;;;18.64;100.00;99651.19;5093904;28;20028;-89
2023/09/14 01:13:51;;;;;;;4.97;4.57;;;;;;;18.59;100.00;99663.06;5093911;28;20020;-88
2023/09/14 01:16:26;;;;;;;5.28;4.78;;;;;;;18.58;100.00;99659.59;5093778;28;20020;-88
2023/09/14 01:19:05;;;;;;;5.78;4.55;;;;;;;18.49;100.00;99648.91;5093831;28;20502;-88
2023/09/14 01:21:56;;;;;;;4.97;4.50;;;;;;;18.55;100.00;99656.34;5052520;28;20525;-89
2023/09/14 01:24:52;;;;;;;5.00;4.45;;;;;;;18.45;100.00;99656.22;5035789;28;20020;-88
2023/09/14 01:27:17;;;;;;;5.88;4.95;;;;;;;18.44;100.00;99665.94;5035428;28;20111;-88
2023/09/14 01:29:43;;;;;;;5.32;4.68;;;;;;;18.43;100.00;99656.38;5052423;28;20611;-88
2023/09/14 01:32:08;;;;;;;5.18;4.45;;;;;;;18.45;100.00;99664.13;5035421;28;20047;-89
2023/09/14 01:34:33;;;;;;;4.95;4.45;;;;;;;18.41;100.00;99662.69;5035490;28;20491;-89
2023/09/14 01:37:04;;;;;;;5.05;4.55;;;;;;;18.35;100.00;99665.84;5035354;28;20029;-89
2023/09/14 01:39:31;;;;;;;4.40;4.00;;;;;;;18.40;100.00;99661.03;5035498;28;20028;-88
2023/09/14 01:41:57;;;;;;;5.22;4.72;;;;;;;18.39;100.00;99665.47;5035267;28;20534;-90
2023/09/14 01:44:27;;;;;;;6.70;5.05;;;;;;;18.40;100.00;99666.31;5035520;28;20053;-89
2023/09/14 01:46:53;;;;;;;5.28;4.78;;;;;;;18.22;100.00;99638.75;5035361;28;20393;-90
2023/09/14 01:49:18;;;;;;;5.53;5.03;;;;;;;18.37;100.00;99656.84;5035116;28;20029;-88
2023/09/14 01:51:44;;;;;;;7.75;5.45;;;;;;;18.42;100.00;99672.31;5043040;28;20055;-88
2023/09/14 01:54:09;;;;;;;6.13;5.53;;;;;;;18.27;100.00;99639.22;5094290;28;20038;-88
2023/09/14 01:56:35;;;;;;;8.07;5.63;;;;;;;18.36;100.00;99651.69;5095182;28;20027;-88
2023/09/14 01:59:01;;;;;;;6.63;6.03;;;;;;;18.42;100.00;99654.69;5092941;28;20032;-88
2023/09/14 02:01:26;;;;;;;6.18;5.18;;;;;;;18.46;100.00;99657.94;5093232;28;20031;-88
2023/09/14 02:03:51;;;;;;;6.38;5.55;;;;;;;18.51;100.00;99660.19;5094388;28;20058;-89
2023/09/14 02:06:17;;;;;;;6.82;5.68;;;;;;;18.32;100.00;99643.19;5092798;28;20020;-88
2023/09/14 02:08:42;;;;;;;6.07;5.32;;;;;;;18.38;100.00;99649.78;5092650;28;20382;-88
2023/09/14 02:11:08;;;;;;;6.20;5.60;;;;;;;18.48;100.00;99665.72;5092762;28;20131;-88
2023/09/14 02:13:34;;;;;;;7.30;6.60;;;;;;;18.52;100.00;99667.13;5092838;28;20077;-88
2023/09/14 02:16:00;;;;;;;8.07;6.28;;;;;;;18.51;100.00;99670.75;5092548;28;20441;-88
2023/09/14 02:18:26;;;;;;;6.18;5.63;;;;;;;18.55;100.00;99666.91;5092897;28;20024;-88
2023/09/14 02:20:51;;;;;;;6.38;5.88;;;;;;;18.56;100.00;99671.22;5093000;28;20028;-88
2023/09/14 02:23:17;;;;;;;7.43;6.50;;;;;;;18.55;100.00;99669.53;5092681;28;20425;-89
2023/09/14 02:25:43;;;;;;;6.95;6.25;;;;;;;18.60;100.00;99670.84;5092622;28;20027;-88
2023/09/14 02:28:09;;;;;;;6.80;6.07;;;;;;;18.65;100.00;99679.22;5092420;28;20507;-89
2023/09/14 02:30:39;;;;;;;6.90;6.20;;;;;;;18.33;100.00;99633.47;5093903;28;20024;-89
2023/09/14 02:33:06;;;;;;;10.00;6.38;;;;;;;18.68;100.00;99692.19;5092381;28;20024;-88
2023/09/14 02:35:31;;;;;;;6.20;5.60;;;;;;;18.55;100.00;99665.09;5092379;28;20115;-89
2023/09/14 02:37:57;;;;;;;6.55;5.95;;;;;;;18.57;100.00;99681.63;5092446;28;20123;-88
2023/09/14 02:40:22;;;;;;;6.75;5.90;;;;;;;18.58;100.00;99703.56;5092103;28;20024;-88
2023/09/14 02:42:47;;;;;;;7.00;6.05;;;;;;;18.60;100.00;99712.22;5092376;28;20028;-88
2023/09/14 02:45:12;;;;;;;6.00;5.40;;;;;;;18.58;100.00;99703.56;5092094;28;20131;-88
2023/09/14 02:47:38;;;;;;;7.03;5.60;;;;;;;18.57;100.00;99701.91;5092262;28;20447;-88
2023/09/14 02:50:03;;;;;;;6.75;5.57;;;;;;;18.64;100.00;99714.50;5091886;28;20080;-88
2023/09/14 02:52:29;;;;;;;7.57;5.85;;;;;;;18.66;100.00;99719.63;5092154;28;20177;-88
2023/09/14 02:54:54;;;;;;;7.40;6.57;;;;;;;18.59;100.00;99695.56;5093269;28;20031;-89
2023/09/14 02:57:19;;;;;;;8.30;7.13;;;;;;;18.67;100.00;99716.91;5091837;28;20039;-88
2023/09/14 02:59:45;;;;;;;8.77;7.90;;;;;;;18.65;100.00;99720.59;5092021;28;20032;-89
2023/09/14 03:02:10;;;;;;;7.85;6.57;;;;;;;18.65;100.00;99728.50;5091843;28;20463;-88
2023/09/14 03:04:35;;;;;;;8.48;7.55;;;;;;;18.60;100.00;99717.50;5091885;28;20035;-88
2023/09/14 03:07:01;;;;;;;8.90;8.10;;;;;;;18.62;100.00;99731.38;5091649;28;20020;-88
2023/09/14 03:09:27;;;;;;;7.72;7.00;;;;;;;18.73;100.00;99741.13;5092993;28;20034;-88
2023/09/14 03:11:54;;;;;;;10.45;9.35;;;;;;;18.69;100.00;99744.00;5091824;28;20512;-88
2023/09/14 03:14:19;;;;;;;9.52;8.52;;;;;;;18.59;100.00;99732.47;5091219;28;20058;-88
2023/09/14 03:16:45;;;;;;;10.38;9.30;;;;;;;18.60;100.00;99741.22;5091763;28;20040;-88
2023/09/14 03:19:10;;;;;;;10.05;9.05;;;;;;;18.58;100.00;99745.78;5090910;28;20042;-88
2023/09/14 03:21:35;;;;;;;9.52;8.45;;;;;;;18.50;100.00;99733.22;5091320;28;20030;-88
2023/09/14 03:24:01;;;;;;;9.32;8.32;;;;;;;18.43;100.00;99739.91;5091279;28;20035;-88
2023/09/14 03:26:29;;;;;;;10.35;8.50;;;;;;;18.37;100.00;99746.50;5091552;28;20024;-88
2023/09/14 03:28:54;;;;;;;10.63;8.35;;;;;;;18.50;100.00;99750.81;5091429;28;20422;-89
2023/09/14 03:31:20;;;;;;;9.88;8.88;;;;;;;18.50;100.00;99761.34;5091300;28;20049;-89
2023/09/14 03:33:47;;;;;;;10.15;9.15;;;;;;;18.28;100.00;99751.63;5049901;28;20090;-88
2023/09/14 03:36:13;;;;;;;9.07;8.27;;;;;;;18.29;100.00;99764.72;5033154;28;20404;-89
2023/09/14 03:38:38;;;;;;;7.95;7.15;;;;;;;18.35;100.00;99766.03;5033274;28;20052;-89
2023/09/14 03:41:03;;;;;;;7.85;7.15;;;;;;;18.42;100.00;99761.97;5033033;28;20155;-89
2023/09/14 03:43:29;;;;;;;8.05;7.28;;;;;;;18.36;100.00;99749.25;5033176;28;20056;-90
2023/09/14 03:45:56;;;;;;;8.45;7.68;;;;;;;18.09;100.00;99723.22;5033224;28;20021;-90
2023/09/14 03:48:22;;;;;;;7.95;7.22;;;;;;;18.28;100.00;99741.94;5032883;28;20134;-89
2023/09/14 03:50:47;;;;;;;9.52;7.28;;;;;;;18.33;100.00;99767.94;5033241;28;20048;-89
2023/09/14 03:53:13;;;;;;;8.52;6.28;;;;;;;18.30;100.00;99771.66;5032970;28;20550;-89
2023/09/14 03:55:38;;;;;;;7.78;7.00;;;;;;;18.32;100.00;99768.91;5032911;28;20021;-89
2023/09/14 03:58:03;;;;;;;7.25;6.50;;;;;;;18.37;100.00;99778.16;5032916;28;20107;-89
2023/09/14 04:00:29;;;;;;;7.03;6.13;;;;;;;18.21;100.00;99756.56;5049699;28;20439;-90
2023/09/14 04:02:54;;;;;;;6.65;6.05;;;;;;;18.35;100.00;99781.84;5033070;28;20028;-90
2023/09/14 04:05:20;;;;;;;7.85;6.72;;;;;;;18.31;100.00;99786.53;5074923;28;20443;-89
2023/09/14 04:07:46;;;;;;;8.90;7.25;;;;;;;18.34;100.00;99796.00;5090897;28;20074;-89
2023/09/14 04:10:11;;;;;;;6.82;6.15;;;;;;;18.31;100.00;99793.59;5090609;28;20030;-90
2023/09/14 04:12:38;;;;;;;8.55;6.97;;;;;;;18.11;100.00;99776.66;5090976;28;20106;-89
2023/09/14 04:15:04;;;;;;;11.68;6.97;;;;;;;18.25;100.00;99802.81;5090547;28;20140;-89
2023/09/14 04:17:30;;;;;;;8.65;6.97;;;;;;;18.14;100.00;99800.16;5090822;28;20066;-90
2023/09/14 04:19:55;;;;;;;7.65;6.00;;;;;;;18.00;100.00;99785.38;5090795;28;20630;-90
2023/09/14 04:22:20;;;;;;;7.25;6.35;;;;;;;17.97;100.00;99796.16;5090557;28;20481;-89
2023/09/14 04:24:46;;;;;;;6.40;5.80;;;;;;;18.10;100.00;99815.34;5090837;28;20378;-89
2023/09/14 04:27:11;;;;;;;6.78;5.38;;;;;;;18.13;100.00;99827.47;5090750;28;20081;-89
2023/09/14 04:29:36;;;;;;;5.22;4.72;;;;;;;18.10;100.00;99823.25;5091099;28;20030;-89
2023/09/14 04:32:03;;;;;;;4.75;4.35;;;;;;;18.13;100.00;99823.03;5093408;28;20020;-89
2023/09/14 04:34:28;;;;;;;3.75;3.40;;;;;;;18.11;100.00;99824.94;5094514;28;20024;-90
2023/09/14 04:36:54;;;;;;;3.00;2.80;;;;;;;17.93;100.00;99811.34;5094770;28;20035;-90
2023/09/14 04:39:19;;;;;;;4.43;3.22;;;;;;;18.01;100.00;99831.03;5094582;28;20031;-89
2023/09/14 04:41:44;;;;;;;3.28;2.70;;;;;;;17.87;100.00;99832.88;5094733;28;20034;-90
2023/09/14 04:44:11;;;;;;;3.92;2.45;;;;;;;17.85;100.00;99826.88;5094425;28;20028;-88
2023/09/14 04:46:36;;;;;;;2.70;2.50;;;;;;;17.88;100.00;99836.38;5094573;28;20502;-89
2023/09/14 04:49:01;;;;;;;3.10;2.90;;;;;;;17.90;100.00;99844.97;5094560;28;20039;-90
2023/09/14 04:51:27;;;;;;;2.45;2.25;;;;;;;17.86;100.00;99849.63;5094414;28;20024;-89
2023/09/14 04:53:53;;;;;;;2.70;2.50;;;;;;;17.89;100.00;99856.47;5094531;28;20688;-89
2023/09/14 04:56:19;;;;;;;2.75;2.55;;;;;;;17.87;100.00;99855.78;5094045;28;20043;-89
2023/09/14 04:58:44;;;;;;;2.90;2.70;;;;;;;17.67;100.00;99842.22;5094309;28;20118;-89
2023/09/14 05:01:10;;;;;;;2.58;2.30;;;;;;;17.71;100.00;99848.94;5094167;28;20112;-88
2023/09/14 05:03:35;;;;;;;2.60;2.40;;;;;;;17.75;100.00;99865.41;5094273;28;20047;-88
2023/09/14 05:06:02;;;;;;;3.13;2.83;;;;;;;17.69;100.00;99869.28;5094180;28;20443;-89
2023/09/14 05:08:27;;;;;;;3.67;3.03;;;;;;;17.54;100.00;99846.69;5095184;28;20063;-89
2023/09/14 05:10:53;;;;;;;3.50;3.10;;;;;;;17.56;100.00;99859.75;5094192;28;20059;-89
2023/09/14 05:13:20;;;;;;;3.45;3.15;;;;;;;17.66;100.00;99876.59;5094387;28;20114;-89
2023/09/14 05:15:46;;;;;;;3.88;3.15;;;;;;;17.69;100.00;99885.06;5093813;28;20044;-89
2023/09/14 05:18:11;;;;;;;3.53;3.13;;;;;;;17.70;100.00;99884.16;5093830;28;20023;-88
2023/09/14 05:20:37;;;;;;;4.07;3.67;;;;;;;17.60;100.00;99871.75;5072236;28;20047;-89
2023/09/14 05:23:03;;;;;;;4.07;3.50;;;;;;;17.57;100.00;99874.59;5055699;28;20064;-89
2023/09/14 05:25:29;;;;;;;3.72;3.38;;;;;;;17.50;100.00;99876.00;5072065;28;20037;-89
2023/09/14 05:27:54;;;;;;;4.97;4.53;;;;;;;17.49;100.00;99877.81;5055687;28;20035;-88
2023/09/14 05:30:22;;;;;;;4.80;3.55;;;;;;;17.47;100.00;99890.22;5055373;28;20036;-88
2023/09/14 05:32:49;;;;;;;4.28;3.60;;;;;;;17.44;100.00;99895.69;5072277;28;20086;-88
2023/09/14 05:35:14;;;;;;;5.22;3.78;;;;;;;17.36;100.00;99892.75;5055065;28;20041;-89
2023/09/14 05:37:40;;;;;;;5.30;4.35;;;;;;;17.37;100.00;99903.19;5055531;28;20035;-89
2023/09/14 05:40:09;;;;;;;4.57;3.65;;;;;;;17.34;100.00;99907.84;5055506;28;20092;-89
2023/09/14 05:42:37;;;;;;;5.32;3.95;;;;;;;17.30;100.00;99894.03;5054778;28;20038;-89
2023/09/14 05:45:06;;;;;;;4.32;3.92;;;;;;;17.30;100.00;99893.22;5055259;28;20373;-89
2023/09/14 05:47:31;;;;;;;4.50;4.10;;;;;;;17.36;100.00;99901.53;5071746;28;20052;-88
2023/09/14 05:49:57;;;;;;;4.70;3.50;;;;;;;17.31;100.00;99892.25;5055275;28;20031;-89
2023/09/14 05:52:22;;;;;;;5.60;3.97;;;;;;;17.34;100.00;99906.03;5085464;28;20162;-89
2023/09/14 05:54:48;;;;;;;6.70;3.95;;;;;;;17.40;100.00;99916.16;5093213;28;20035;-89
2023/09/14 05:57:14;;;;;;;5.10;4.00;;;;;;;17.21;100.00;99887.63;5093305;28;20382;-89
2023/09/14 05:59:43;;;;;;;4.22;3.78;;;;;;;17.21;100.00;99868.38;5093220;28;20422;-88
2023/09/14 06:02:08;;;;;;;5.90;4.03;;;;;;;17.26;100.00;99876.78;5093124;28;20035;-89
2023/09/14 06:04:34;;;;;;;4.53;3.42;;;;;;;17.38;100.00;99898.78;5092963;28;20020;-88
2023/09/14 06:07:00;;;;;;;3.95;3.20;;;;;;;17.41;100.00;99902.03;5093047;28;20093;-89
2023/09/14 06:09:26;;;;;;;4.53;3.85;;;;;;;17.34;100.00;99884.16;5094214;28;20028;-88
2023/09/14 06:11:52;;;;;;;5.57;4.10;;;;;;;17.47;100.00;99911.28;5093055;28;20036;-89
2023/09/14 06:14:18;;;;;;;5.35;4.07;;;;;;;17.49;100.00;99919.06;5092572;28;20056;-89
2023/09/14 06:16:43;;;;;;;5.20;3.72;;;;;;;17.53;100.00;99920.53;5092883;28;20028;-89
2023/09/14 06:19:09;;;;;;;5.18;3.78;;;;;;;17.51;100.00;99907.47;5092736;28;20035;-89
2023/09/14 06:21:34;;;;;;;6.15;3.50;;;;;;;17.60;100.00;99925.25;5092688;28;20102;-88
2023/09/14 06:24:00;;;;;;;6.45;3.58;;;;;;;17.66;100.00;99935.38;5092733;28;20062;-89
2023/09/14 06:26:29;;;;;;;6.28;4.10;;;;;;;17.46;100.00;99909.59;5092455;28;20402;-89
2023/09/14 06:28:55;;;;;;;9.43;4.35;;;;;;;17.63;100.00;99934.75;5092679;28;20035;-89
2023/09/14 06:31:22;;;;;;;4.93;3.65;;;;;;;17.67;100.00;99937.03;5093619;28;20082;-89
2023/09/14 06:33:49;;;;;;;7.13;3.55;;;;;;;17.70;100.00;99944.75;5092533;28;20093;-88
2023/09/14 06:36:18;;;;;;;8.00;3.63;;;;;;;17.70;100.00;99947.38;5092200;28;20020;-89
2023/09/14 06:38:43;;;;;;;4.35;3.80;;;;;;;17.77;100.00;99947.78;5093823;28;20115;-89
2023/09/14 06:41:09;;;;;;;6.53;3.90;;;;;;;17.79;100.00;99943.28;5093709;28;20591;-88
2023/09/14 06:43:34;;;;;;;5.22;3.10;;;;;;;17.98;100.00;99952.47;5092445;28;20047;-88
2023/09/14 06:45:59;;;;;;;4.18;3.38;;;;;;;18.08;100.00;99956.13;5092327;28;20459;-89
2023/09/14 06:48:25;;;;;;;6.07;4.45;;;;;;;18.08;100.00;99959.63;5092062;28;20391;-88
2023/09/14 06:50:50;;;;;;;4.68;3.97;;;;;;;18.19;100.00;99959.66;5092244;28;20020;-89
2023/09/14 06:53:16;;;;;;;9.82;4.88;;;;;;;18.10;100.00;99948.94;5093246;28;20023;-90
2023/09/14 06:55:42;;;;;;;5.70;4.43;;;;;;;18.18;100.00;99967.69;5091073;28;20470;-89
2023/09/14 06:58:08;;;;;;;4.90;4.10;;;;;;;18.25;100.00;99962.81;5092320;28;20032;-88
2023/09/14 07:00:35;;;;;;;4.45;3.60;;;;;;;18.28;100.00;99973.13;5091878;28;20084;-89
2023/09/14 07:03:02;;;;;;;7.65;4.18;;;;;;;18.16;100.00;99944.06;5092055;28;20036;-89
2023/09/14 07:05:27;;;;;;;6.63;4.63;;;;;;;18.20;100.00;99960.47;5091764;28;20040;-88
2023/09/14 07:07:54;;;;;;;6.15;5.18;;;;;;;18.32;100.00;99985.97;5091935;28;20039;-88
2023/09/14 07:10:20;;;;;;;7.95;5.57;;;;;;;18.31;100.00;99981.66;5091833;28;20039;-89
2023/09/14 07:12:45;;;;;;;8.45;5.93;;;;;;;18.23;100.00;99972.63;5091786;28;20024;-88
2023/09/14 07:15:11;;;;;;;7.43;5.63;;;;;;;18.33;100.00;99995.56;5091511;28;20040;-89
2023/09/14 07:17:36;;;;;;;7.70;6.07;;;;;;;18.35;100.00;99991.00;5068930;28;20452;-89
2023/09/14 07:20:04;;;;;;;8.65;5.93;;;;;;;18.40;100.00;99998.59;5071123;28;20028;-90
2023/09/14 07:22:29;;;;;;;6.35;5.45;;;;;;;18.52;100.00;100002.97;5070792;28;20032;-90
2023/09/14 07:24:55;;;;;;;7.53;6.20;;;;;;;18.58;100.00;100002.53;5071171;28;20383;-89
2023/09/14 07:27:22;;;;;;;6.53;5.82;;;;;;;18.69;100.00;100010.50;5070686;28;20037;-89
2023/09/14 07:29:48;;;;;;;5.90;5.30;;;;;;;18.89;100.00;100013.44;5070808;28;20029;-88
2023/09/14 07:32:13;;;;;;;9.27;6.57;;;;;;;19.05;100.00;100007.84;5050994;28;20032;-88
2023/09/14 07:34:39;;;;;;;7.15;5.45;;;;;;;19.12;100.00;100004.59;5050327;28;20021;-89
2023/09/14 07:37:04;;;;;;;5.68;5.03;;;;;;;19.27;100.00;100007.03;5050950;28;20474;-88
2023/09/14 07:39:30;;;;;;;6.43;5.30;;;;;;;19.49;100.00;100007.06;5050678;28;20041;-87
2023/09/14 07:41:56;;;;;;;8.23;6.00;;;;;;;19.75;100.00;100006.84;5050864;28;20032;-89
2023/09/14 07:47:43;;;;;;;8.57;6.25;;;;;;;20.55;100.00;100015.34;5053028;28;20040;-88
2023/09/14 07:50:09;;;;;;;8.82;6.10;;;;;;;20.72;100.00;100016.59;5050932;28;20396;-88
2023/09/14 07:52:34;;;;;;;8.20;5.72;;;;;;;20.86;100.00;100026.06;5050585;28;20072;-88
2023/09/14 07:55:00;;;;;;;6.78;5.28;;;;;;;20.75;100.00;100018.16;5050743;28;20499;-88
2023/09/14 07:57:26;;;;;;;8.43;6.10;;;;;;;20.47;100.00;100011.59;5050499;28;20555;-88
2023/09/14 07:59:52;;;;;;;8.95;6.07;;;;;;;20.37;100.00;100024.75;5052118;28;20103;-87
2023/09/14 08:02:17;;;;;;;7.40;5.95;;;;;;;20.32;100.00;100025.13;5050745;28;20120;-88
2023/09/14 08:04:42;;;;;;;6.97;5.40;;;;;;;20.38;100.00;100002.63;5050470;28;20037;-88
2023/09/14 08:07:08;;;;;;;6.35;5.75;;;;;;;20.89;100.00;100033.72;5051316;28;20040;-89
2023/09/14 08:09:33;;;;;;;9.65;6.75;;;;;;;21.00;100.00;100028.38;5050148;28;20392;-88
2023/09/14 08:11:58;;;;;;;7.45;6.53;;;;;;;20.92;100.00;100039.59;5050456;28;20017;-88
2023/09/14 08:14:24;;;;;;;8.07;5.80;;;;;;;20.97;100.00;100041.03;5050986;28;20493;-88
2023/09/14 08:16:50;;;;;;;6.20;5.50;;;;;;;20.92;100.00;100042.25;5051038;28;20041;-88
2023/09/14 08:19:16;;;;;;;6.35;5.63;;;;;;;20.81;100.00;100047.59;5050941;28;20098;-88
2023/09/14 08:21:41;;;;;;;8.90;5.80;;;;;;;20.62;100.00;100044.78;5050523;28;20036;-88
2023/09/14 08:24:07;;;;;;;9.02;6.13;;;;;;;20.37;100.00;100048.56;5052617;28;20032;-88
2023/09/14 08:26:32;;;;;;;9.30;6.35;;;;;;;20.10;100.00;100054.25;5059915;28;20110;-88
2023/09/14 08:28:57;;;;;;;7.57;5.20;;;;;;;19.76;100.00;100041.06;5061548;28;20020;-88
2023/09/14 08:31:23;;;;;;;7.45;6.40;;;;;;;19.77;100.00;100055.97;5069281;28;20453;-87
2023/09/14 08:33:48;;;;;;;7.30;5.93;;;;;;;19.77;100.00;100063.06;5070124;28;20036;-88
2023/09/14 08:36:13;;;;;;;8.70;6.03;;;;;;;19.63;100.00;100058.84;5068877;28;20037;-88
2023/09/14 08:38:39;;;;;;;7.15;6.30;;;;;;;19.60;100.00;100061.72;5067780;28;20035;-88
2023/09/14 08:41:40;;;;;;;7.18;5.88;;;;;;;19.62;100.00;100071.22;5069880;28;20119;-88
2023/09/14 08:44:07;;;;;;;9.13;6.22;;;;;;;19.62;100.00;100067.75;4992801;28;20088;-87
2023/09/14 08:46:34;;;;;;;7.55;6.07;;;;;;;19.65;100.00;100064.88;4992236;28;20129;-87
2023/09/14 08:49:01;;;;;;;9.15;6.53;;;;;;;19.65;100.00;100065.69;5009138;28;20500;-87
2023/09/14 08:51:29;;;;;;;6.97;5.72;;;;;;;19.78;100.00;100073.50;4992439;28;20040;-88
2023/09/14 08:53:56;;;;;;;6.57;5.70;;;;;;;19.81;100.00;100075.09;4992790;28;20104;-87
2023/09/14 08:56:22;;;;;;;8.65;6.20;;;;;;;19.69;100.00;100067.16;5000180;28;20517;-87
2023/09/14 08:58:48;;;;;;;8.35;6.13;;;;;;;19.57;100.00;100056.66;4973060;28;20058;-87
2023/09/14 09:01:17;;;;;;;10.20;6.85;;;;;;;19.61;100.00;100066.91;4989623;28;20050;-87
2023/09/14 09:03:42;;;;;;;9.63;6.63;;;;;;;19.61;100.00;100072.19;4973080;28;20093;-87
2023/09/14 09:06:08;;;;;;;11.05;6.93;;;;;;;19.59;100.00;100078.50;4979750;28;20037;-87
2023/09/14 09:08:34;;;;;;;8.45;6.35;;;;;;;19.71;100.00;100071.47;4992053;28;20481;-87
2023/09/14 09:11:00;;;;;;;7.88;6.47;;;;;;;19.86;100.00;100080.84;4992468;28;20034;-87
2023/09/14 09:13:39;;;;;;;8.07;6.07;;;;;;;19.84;100.00;100074.81;5009218;28;20057;-87
2023/09/14 09:16:05;;;;;;;9.93;6.90;;;;;;;19.88;100.00;100073.63;5003229;28;20560;-87
2023/09/14 09:18:30;;;;;;;9.68;6.95;;;;;;;20.09;100.00;100081.66;4975940;28;20046;-88
2023/09/14 09:20:57;;;;;;;8.48;6.70;;;;;;;20.30;100.00;100076.47;5053169;28;20056;-88
2023/09/14 09:23:25;;;;;;;9.65;6.50;;;;;;;20.54;100.00;100073.69;5053583;28;20039;-88
2023/09/14 09:25:54;;;;;;;8.57;6.05;;;;;;;20.64;100.00;100053.44;5053337;28;20113;-87
2023/09/14 09:28:29;;;;;;;7.20;5.72;;;;;;;20.83;100.00;100072.13;5054719;28;20060;-88
2023/09/14 09:30:54;;;;;;;6.35;5.43;;;;;;;20.92;100.00;100068.72;5053077;28;20035;-87
2023/09/14 09:33:33;;;;;;;5.70;4.50;;;;;;;20.77;97.94;100063.84;5053237;28;20391;-87
2023/09/14 09:36:00;;;;;;;6.00;4.68;;;;;;;20.65;99.33;100058.63;5053098;28;20082;-87
2023/09/14 09:38:27;;;;;;;6.68;4.68;;;;;;;20.53;98.76;100077.31;5053033;28;20056;-87
2023/09/14 09:40:53;;;;;;;6.28;4.25;;;;;;;20.29;99.48;100072.16;5056804;28;20024;-87
2023/09/14 09:43:19;;;;;;;5.35;4.30;;;;;;;20.11;100.00;100082.41;5073137;28;20357;-87
2023/09/14 09:45:46;;;;;;;7.05;4.85;;;;;;;19.78;100.00;100064.75;5073099;28;20064;-87
2023/09/14 09:48:12;;;;;;;5.95;5.07;;;;;;;19.69;100.00;100092.75;5073292;28;20025;-87
2023/09/14 09:50:38;;;;;;;8.07;5.10;;;;;;;19.44;100.00;100080.53;5072916;28;20093;-87
2023/09/14 09:53:17;;;;;;;5.93;4.95;;;;;;;19.36;100.00;100075.84;5074405;28;20128;-87
2023/09/14 09:55:45;;;;;;;7.47;4.93;;;;;;;19.38;100.00;100081.00;5072808;28;20437;-87
2023/09/14 09:58:11;;;;;;;9.18;5.45;;;;;;;19.35;100.00;100081.25;5073084;28;20056;-87
2023/09/14 10:00:39;;;;;;;8.48;5.22;;;;;;;19.37;100.00;100085.44;5074129;28;20063;-87
2023/09/14 10:03:05;;;;;;;7.40;5.50;;;;;;;19.41;100.00;100076.31;5071930;28;20085;-87
2023/09/14 10:05:33;;;;;;;7.75;5.30;;;;;;;19.54;100.00;100076.22;5087496;28;20077;-87
2023/09/14 10:08:00;;;;;;;5.68;5.07;;;;;;;19.69;100.00;100082.16;5092749;28;20062;-87
2023/09/14 10:10:28;;;;;;;5.18;4.72;;;;;;;19.83;100.00;100083.72;5064082;28;20036;-88
2023/09/14 10:12:55;;;;;;;6.93;5.20;;;;;;;19.83;100.00;100066.06;5052271;28;20569;-88
2023/09/14 10:15:21;;;;;;;6.40;5.00;;;;;;;19.82;100.00;100037.94;5052260;28;20472;-88
2023/09/14 10:17:52;;;;;;;6.15;5.43;;;;;;;20.13;100.00;100070.72;5052251;28;20043;-87
2023/09/14 10:20:17;;;;;;;6.05;5.05;;;;;;;20.31;99.74;100080.78;5052218;28;20028;-87
2023/09/14 10:22:44;;;;;;;7.65;5.63;;;;;;;20.24;98.86;100061.94;5053171;28;20480;-87
2023/09/14 10:25:10;;;;;;;7.53;5.35;;;;;;;20.23;98.92;100059.44;5052192;28;20122;-87
2023/09/14 10:27:36;;;;;;;6.13;4.85;;;;;;;20.16;98.81;100074.94;5053300;28;20025;-87
2023/09/14 10:30:04;;;;;;;6.10;5.50;;;;;;;20.08;99.90;100085.28;5051994;28;20024;-88
2023/09/14 10:32:33;;;;;;;5.97;5.38;;;;;;;19.91;100.00;100081.31;5051964;28;20051;-87
2023/09/14 10:35:00;;;;;;;5.47;4.97;;;;;;;19.95;100.00;100085.41;5051936;28;20052;-88
2023/09/14 10:37:28;;;;;;;6.97;5.30;;;;;;;20.04;100.00;100081.19;5051865;28;20052;-88
2023/09/14 10:39:54;;;;;;;6.53;5.43;;;;;;;20.25;100.00;100076.84;5051903;28;20120;-87
2023/09/14 10:42:20;;;;;;;8.50;5.65;;;;;;;20.38;98.98;100080.19;5051912;28;20024;-87
2023/09/14 10:44:46;;;;;;;5.40;4.90;;;;;;;20.43;97.41;100071.88;5050820;28;20021;-87
2023/09/14 10:47:15;;;;;;;5.25;4.78;;;;;;;20.38;94.12;100077.53;5051816;28;20021;-87
2023/09/14 10:49:44;;;;;;;7.03;4.88;;;;;;;20.38;94.30;100082.00;5051486;28;20029;-87
2023/09/14 10:52:10;;;;;;;8.02;4.78;;;;;;;20.33;95.77;100086.81;5052992;28;20032;-87
2023/09/14 10:54:35;;;;;;;7.03;5.55;;;;;;;20.16;95.80;100091.66;5052440;28;20025;-88
2023/09/14 10:57:10;;;;;;;5.10;4.60;;;;;;;20.05;95.02;100093.44;5051679;28;20473;-87
2023/09/14 10:59:50;;;;;;;7.95;5.13;;;;;;;20.11;95.58;100096.47;5051353;28;20063;-87
2023/09/14 11:02:54;;;;;;;5.88;5.25;;;;;;;20.19;95.38;100087.94;5051240;28;20029;-87
2023/09/14 11:05:21;;;;;;;7.88;4.78;;;;;;;20.25;95.50;100087.41;5052782;28;20025;-87
2023/09/14 11:07:54;;;;;;;7.93;4.78;;;;;;;20.33;94.24;100085.00;5051166;28;20028;-87
2023/09/14 11:10:22;;;;;;;6.55;5.03;;;;;;;20.43;94.00;100096.50;5052750;28;20432;-87
2023/09/14 11:12:48;;;;;;;8.65;4.82;;;;;;;20.42;94.02;100076.31;5052198;28;20029;-87
2023/09/14 11:15:21;;;;;;;19.95;6.40;;;;;;;20.42;92.19;100081.63;5051167;28;20057;-87
2023/09/14 11:17:54;;;;;;;9.25;4.97;;;;;;;20.23;89.83;100075.31;5052235;28;20029;-88
2023/09/14 11:20:19;;;;;;;6.57;4.68;;;;;;;20.37;90.58;100085.59;5052396;28;20060;-87
2023/09/14 11:22:48;;;;;;;6.15;4.38;;;;;;;20.43;90.46;100085.09;5052114;28;20052;-88